Terminal Aerodrome Forecast
Issued by NWS Sterling, VA

Current Version | Previous Version | Graphics & Text | Print | Product List | Glossary On
Versions: 1 2 3 4 5 6 7 8 9 10 11 12 13 14 15 16 17 18 19 20 21 22 23
000
FTUS41 KLWX 281400 AAA
TAFIAD
TAF AMD
KIAD 281456Z 2815/2918 30015G25KT P6SM SCT050 BKN090
     FM282300 30012KT P6SM BKN050
     FM290300 31008KT P6SM BKN090
     FM290400 31006KT P6SM SCT090=

USA.gov is the U.S. government's official web portal to all federal, state and local government web resources and services.